Time;durP1;ratioP1;P1;durP2;ratioP2;P2;SDS_P1;SDS_P2;PMS_P1;PMS_P2;Temp;Humidity;BMP_temperature;BMP_pressure;BME280_temperature;BME280_humidity;BME280_pressure;Samples;Min_cycle;Max_cycle;Signal;HPM_P1;HPM_P2
2023/01/31 00:00:06;;;;;;;;;;;2.90;97.50;;;;;;5014563;28;20381;-78
2023/01/31 00:02:32;;;;;;;;;;;2.80;97.60;;;;;;5019579;28;20287;-78
2023/01/31 00:04:58;;;;;;;;;;;2.80;97.50;;;;;;5022722;28;19913;-78
2023/01/31 00:07:23;;;;;;;;;;;2.90;97.50;;;;;;5004692;28;19977;-78
2023/01/31 00:09:49;;;;;;;;;;;2.90;97.60;;;;;;5036466;28;19916;-77
2023/01/31 00:12:14;;;;;;;;;;;2.90;97.50;;;;;;5033509;28;19913;-76
2023/01/31 00:14:40;;;;;;;;;;;2.90;97.50;;;;;;5018604;28;19932;-77
2023/01/31 00:17:05;;;;;;;;;;;2.90;97.50;;;;;;5018237;28;20006;-78
2023/01/31 00:19:31;;;;;;;;;;;2.90;97.40;;;;;;5019410;28;19910;-77
2023/01/31 00:21:56;;;;;;;;;;;2.90;97.50;;;;;;5018117;28;19909;-77
2023/01/31 00:24:22;;;;;;;;;;;2.90;97.60;;;;;;5036841;28;20396;-77
2023/01/31 00:26:55;;;;;;;;;;;2.90;97.60;;;;;;5013316;28;19918;-77
2023/01/31 00:29:24;;;;;;;;;;;2.90;97.50;;;;;;5002623;28;19941;-79
2023/01/31 00:31:50;;;;;;;;;;;2.90;97.70;;;;;;4998212;28;19910;-77
2023/01/31 00:34:15;;;;;;;;;;;2.90;97.80;;;;;;5032090;28;20459;-77
2023/01/31 00:36:41;;;;;;;;;;;2.80;97.70;;;;;;5024556;28;19956;-77
2023/01/31 00:39:07;;;;;;;;;;;2.80;97.70;;;;;;5036155;28;20360;-78
2023/01/31 00:41:33;;;;;;;;;;;2.90;97.70;;;;;;5038162;28;19909;-77
2023/01/31 00:43:59;;;;;;;;;;;2.80;97.60;;;;;;5006854;28;19996;-77
2023/01/31 00:46:24;;;;;;;;;;;2.80;97.60;;;;;;5018126;28;19917;-77
2023/01/31 00:48:50;;;;;;;;;;;2.80;97.70;;;;;;5018213;28;19909;-77
2023/01/31 00:51:16;;;;;;;;;;;2.80;97.80;;;;;;5018361;28;19909;-77
2023/01/31 00:53:42;;;;;;;;;;;2.80;98.00;;;;;;5019791;28;20008;-77
2023/01/31 00:56:09;;;;;;;;;;;2.80;97.80;;;;;;5017371;28;20389;-77
2023/01/31 00:58:35;;;;;;;;;;;2.80;97.90;;;;;;5017449;28;19914;-77
2023/01/31 01:01:07;;;;;;;;;;;2.80;97.80;;;;;;4999900;28;19979;-77
2023/01/31 01:03:32;;;;;;;;;;;2.90;97.60;;;;;;5021258;28;19915;-78
2023/01/31 01:05:58;;;;;;;;;;;2.80;97.60;;;;;;5016659;28;20309;-76
2023/01/31 01:08:23;;;;;;;;;;;2.80;97.70;;;;;;5005430;28;19915;-77
2023/01/31 01:10:49;;;;;;;;;;;2.80;97.90;;;;;;5036517;28;19956;-77
2023/01/31 01:13:14;;;;;;;;;;;2.70;98.00;;;;;;5036119;28;19932;-77
2023/01/31 01:15:40;;;;;;;;;;;2.80;97.80;;;;;;5018176;28;19914;-76
2023/01/31 01:18:05;;;;;;;;;;;2.80;97.90;;;;;;5019602;28;20322;-77
2023/01/31 01:20:31;;;;;;;;;;;2.70;98.00;;;;;;5016808;28;20383;-77
2023/01/31 01:22:57;;;;;;;;;;;2.80;98.00;;;;;;5016390;28;19913;-77
2023/01/31 01:25:23;;;;;;;;;;;2.70;98.00;;;;;;5020863;28;19933;-78
2023/01/31 01:27:48;;;;;;;;;;;2.80;97.90;;;;;;5024281;28;20366;-77
2023/01/31 01:30:14;;;;;;;;;;;2.80;97.90;;;;;;5020527;28;20363;-77
2023/01/31 01:32:40;;;;;;;;;;;2.80;98.00;;;;;;5030179;28;20023;-77
2023/01/31 01:35:05;;;;;;;;;;;2.80;97.90;;;;;;5028161;28;19921;-77
2023/01/31 01:37:31;;;;;;;;;;;2.80;97.70;;;;;;5028882;28;19914;-77
2023/01/31 01:39:57;;;;;;;;;;;2.80;97.80;;;;;;5041442;28;19963;-77
2023/01/31 01:42:23;;;;;;;;;;;2.80;97.70;;;;;;5020512;28;19988;-77
2023/01/31 01:44:51;;;;;;;;;;;2.80;97.70;;;;;;5034491;28;20534;-76
2023/01/31 01:47:31;;;;;;;;;;;2.80;97.80;;;;;;5016292;28;19917;-77
2023/01/31 01:50:19;;;;;;;;;;;2.80;97.50;;;;;;5016071;28;19916;-77
2023/01/31 01:52:47;;;;;;;;;;;2.80;97.80;;;;;;4996026;28;19910;-77
2023/01/31 01:55:15;;;;;;;;;;;2.80;97.60;;;;;;4999176;28;20034;-77
2023/01/31 01:57:43;;;;;;;;;;;2.80;97.50;;;;;;5017402;28;20236;-77
2023/01/31 02:00:13;;;;;;;;;;;2.80;97.60;;;;;;5015003;28;19909;-77
2023/01/31 02:02:39;;;;;;;;;;;2.80;97.60;;;;;;5015622;28;19952;-77
2023/01/31 02:05:05;;;;;;;;;;;2.70;97.60;;;;;;4998958;28;19956;-77
2023/01/31 02:07:31;;;;;;;;;;;2.70;97.60;;;;;;5025324;28;19917;-78
2023/01/31 02:09:59;;;;;;;;;;;2.70;97.60;;;;;;5038684;28;19913;-78
2023/01/31 02:12:25;;;;;;;;;;;2.70;97.70;;;;;;5038950;28;19944;-77
2023/01/31 02:14:51;;;;;;;;;;;2.70;98.00;;;;;;5038255;28;19988;-77
2023/01/31 02:17:17;;;;;;;;;;;2.80;97.50;;;;;;5024043;28;19980;-78
2023/01/31 02:19:49;;;;;;;;;;;2.80;97.40;;;;;;5016181;28;20003;-77
2023/01/31 02:22:34;;;;;;;;;;;2.80;97.40;;;;;;5017452;28;19924;-78
2023/01/31 02:25:10;;;;;;;;;;;2.70;97.50;;;;;;5015825;28;19960;-77
2023/01/31 02:27:38;;;;;;;;;;;2.70;97.70;;;;;;5016170;28;19914;-78
2023/01/31 02:30:16;;;;;;;;;;;2.70;97.70;;;;;;5016669;28;19910;-78
2023/01/31 02:32:48;;;;;;;;;;;2.70;97.80;;;;;;5016454;28;19910;-77
2023/01/31 02:35:13;;;;;;;;;;;2.60;97.90;;;;;;5019679;28;19932;-77
2023/01/31 02:38:02;;;;;;;;;;;2.70;98.00;;;;;;5027964;28;19913;-78
2023/01/31 02:40:46;;;;;;;;;;;2.60;98.00;;;;;;4979292;28;20008;-78
2023/01/31 02:43:20;;;;;;;;;;;2.60;97.90;;;;;;5035461;28;19948;-78
2023/01/31 02:45:51;;;;;;;;;;;2.60;98.00;;;;;;5041335;28;19913;-78
2023/01/31 02:48:19;;;;;;;;;;;2.60;97.80;;;;;;5037595;28;20517;-77
2023/01/31 02:51:06;;;;;;;;;;;2.60;97.90;;;;;;5036519;28;20464;-78
2023/01/31 02:53:36;;;;;;;;;;;2.60;97.80;;;;;;5027695;28;19936;-78
2023/01/31 02:56:13;;;;;;;;;;;2.60;97.70;;;;;;5031728;28;20000;-78
2023/01/31 02:58:41;;;;;;;;;;;2.60;97.80;;;;;;5037583;28;19916;-78
2023/01/31 03:01:09;;;;;;;;;;;2.60;97.90;;;;;;5036467;28;19996;-78
2023/01/31 03:03:36;;;;;;;;;;;2.60;97.70;;;;;;5027404;28;20016;-78
2023/01/31 03:06:34;;;;;;;;;;;2.60;97.70;;;;;;5020593;28;19913;-77
2023/01/31 03:09:03;;;;;;;;;;;2.60;97.50;;;;;;5025884;28;19909;-77
2023/01/31 03:11:34;;;;;;;;;;;2.60;97.50;;;;;;5034517;28;19909;-77
2023/01/31 03:14:06;;;;;;;;;;;2.60;97.50;;;;;;5022308;28;19921;-77
2023/01/31 03:19:26;;;;;;;;;;;2.60;97.40;;;;;;5014476;28;19917;-77
2023/01/31 03:21:55;;;;;;;;;;;2.60;97.40;;;;;;5014858;28;19909;-76
2023/01/31 03:24:25;;;;;;;;;;;2.60;97.50;;;;;;4998795;28;20342;-76
2023/01/31 03:26:52;;;;;;;;;;;2.60;97.20;;;;;;5022432;28;19928;-77
2023/01/31 03:29:17;;;;;;;;;;;2.60;97.30;;;;;;5020899;28;19910;-77
2023/01/31 03:31:48;;;;;;;;;;;2.60;97.40;;;;;;5017543;28;20259;-77
2023/01/31 03:34:14;;;;;;;;;;;2.60;97.20;;;;;;5033244;28;19935;-77
2023/01/31 03:37:05;;;;;;;;;;;2.60;97.30;;;;;;5030890;28;19953;-77
2023/01/31 03:39:50;;;;;;;;;;;2.50;97.40;;;;;;5032803;28;19932;-78
2023/01/31 03:42:22;;;;;;;;;;;2.60;97.10;;;;;;5037821;28;19909;-77
2023/01/31 03:44:55;;;;;;;;;;;2.60;97.20;;;;;;5023578;28;19913;-77
2023/01/31 03:47:29;;;;;;;;;;;2.60;97.30;;;;;;5014132;28;20286;-77
2023/01/31 03:49:57;;;;;;;;;;;2.50;97.20;;;;;;5013393;28;19914;-77
2023/01/31 03:52:25;;;;;;;;;;;2.60;97.20;;;;;;5015915;28;19995;-77
2023/01/31 03:54:58;;;;;;;;;;;2.50;97.30;;;;;;4995277;28;19920;-77
2023/01/31 03:57:25;;;;;;;;;;;2.50;97.50;;;;;;5013781;28;19933;-77
2023/01/31 03:59:53;;;;;;;;;;;2.50;97.60;;;;;;5013664;28;19960;-77
2023/01/31 04:02:20;;;;;;;;;;;2.50;97.50;;;;;;5018707;28;19910;-78
2023/01/31 04:04:49;;;;;;;;;;;2.50;97.50;;;;;;5018724;28;19913;-78
2023/01/31 04:07:16;;;;;;;;;;;2.40;97.40;;;;;;5022932;28;19921;-77
2023/01/31 04:09:42;;;;;;;;;;;2.40;97.70;;;;;;5019804;28;19909;-78
2023/01/31 04:12:10;;;;;;;;;;;2.40;97.70;;;;;;4999649;28;19933;-78
2023/01/31 04:14:35;;;;;;;;;;;2.40;97.70;;;;;;5016605;28;19913;-78
2023/01/31 04:17:01;;;;;;;;;;;2.40;97.40;;;;;;5034781;28;20390;-78
2023/01/31 04:19:26;;;;;;;;;;;2.30;97.80;;;;;;5038646;28;19933;-78
2023/01/31 04:21:52;;;;;;;;;;;2.30;97.90;;;;;;5036208;28;19948;-77
2023/01/31 04:24:17;;;;;;;;;;;2.30;98.00;;;;;;5035681;28;19913;-78
2023/01/31 04:26:43;;;;;;;;;;;2.30;98.00;;;;;;5023447;28;19924;-78
2023/01/31 04:29:08;;;;;;;;;;;2.30;98.00;;;;;;5022978;28;19924;-78
2023/01/31 04:31:34;;;;;;;;;;;2.30;98.10;;;;;;5018056;28;20385;-78
2023/01/31 04:34:00;;;;;;;;;;;2.30;97.90;;;;;;5012477;28;19918;-77
2023/01/31 04:36:25;;;;;;;;;;;2.30;97.90;;;;;;5015192;28;19913;-79
2023/01/31 04:38:51;;;;;;;;;;;2.30;97.80;;;;;;5025261;28;19964;-78
2023/01/31 04:41:16;;;;;;;;;;;2.30;98.00;;;;;;5020029;28;19953;-79
2023/01/31 04:43:42;;;;;;;;;;;2.20;97.80;;;;;;5017533;28;19920;-79
2023/01/31 04:46:07;;;;;;;;;;;2.20;97.70;;;;;;5034997;28;20028;-79
2023/01/31 04:48:33;;;;;;;;;;;2.30;97.40;;;;;;5017440;28;20501;-79
2023/01/31 04:50:59;;;;;;;;;;;2.30;97.50;;;;;;5020914;28;19993;-78
2023/01/31 04:53:24;;;;;;;;;;;2.30;97.60;;;;;;5021826;28;19913;-78
2023/01/31 04:55:52;;;;;;;;;;;2.30;97.30;;;;;;5019868;28;19909;-78
2023/01/31 04:58:18;;;;;;;;;;;2.30;97.40;;;;;;5002210;28;19910;-78
2023/01/31 05:00:43;;;;;;;;;;;2.20;97.40;;;;;;5021762;28;19920;-79
2023/01/31 05:03:09;;;;;;;;;;;2.20;97.40;;;;;;5020087;28;19976;-78
2023/01/31 05:05:35;;;;;;;;;;;2.20;97.40;;;;;;5019483;28;19936;-79
2023/01/31 05:08:00;;;;;;;;;;;2.20;97.70;;;;;;5025244;28;19917;-79
2023/01/31 05:10:26;;;;;;;;;;;2.20;97.80;;;;;;5041526;28;19920;-80
2023/01/31 05:12:51;;;;;;;;;;;2.10;97.70;;;;;;5023161;28;20277;-79
2023/01/31 05:15:17;;;;;;;;;;;2.20;97.80;;;;;;5040431;28;19940;-78
2023/01/31 05:17:42;;;;;;;;;;;2.10;97.60;;;;;;5034509;28;19917;-79
2023/01/31 05:20:08;;;;;;;;;;;2.10;97.70;;;;;;5021230;28;20274;-79
2023/01/31 05:22:33;;;;;;;;;;;2.20;97.50;;;;;;5020935;28;20426;-78
2023/01/31 05:24:59;;;;;;;;;;;2.20;97.50;;;;;;5021087;28;19909;-79
2023/01/31 05:27:25;;;;;;;;;;;2.20;97.60;;;;;;5021174;28;19920;-79
2023/01/31 05:29:51;;;;;;;;;;;2.20;97.50;;;;;;5029423;28;20315;-79
2023/01/31 05:32:18;;;;;;;;;;;2.20;97.50;;;;;;5049626;28;19909;-80
2023/01/31 05:34:43;;;;;;;;;;;2.20;97.50;;;;;;5049424;28;19917;-80
2023/01/31 05:37:09;;;;;;;;;;;2.20;97.30;;;;;;5040940;28;20313;-79
2023/01/31 05:39:35;;;;;;;;;;;2.20;97.40;;;;;;5030171;28;20024;-80
2023/01/31 05:42:00;;;;;;;;;;;2.20;97.60;;;;;;5030959;28;19923;-80
2023/01/31 05:44:26;;;;;;;;;;;2.10;97.70;;;;;;5031322;28;20004;-79
2023/01/31 05:46:52;;;;;;;;;;;2.10;97.40;;;;;;5029759;28;19925;-80
2023/01/31 05:49:17;;;;;;;;;;;2.10;97.50;;;;;;5012758;28;19920;-79
2023/01/31 05:51:43;;;;;;;;;;;2.10;97.50;;;;;;5030170;28;19913;-81
2023/01/31 05:54:09;;;;;;;;;;;2.10;97.50;;;;;;5032135;28;20093;-79
2023/01/31 05:56:35;;;;;;;;;;;2.10;97.40;;;;;;5026852;28;20163;-80
2023/01/31 05:59:02;;;;;;;;;;;2.10;97.40;;;;;;5029669;28;19917;-80
2023/01/31 06:01:28;;;;;;;;;;;2.10;97.10;;;;;;5031549;28;19920;-79
2023/01/31 06:03:53;;;;;;;;;;;2.20;97.20;;;;;;5015109;28;19910;-79
2023/01/31 06:06:20;;;;;;;;;;;2.10;97.20;;;;;;5019937;28;19972;-79
2023/01/31 06:08:46;;;;;;;;;;;2.20;97.10;;;;;;5028812;28;19909;-80
2023/01/31 06:11:11;;;;;;;;;;;2.10;97.10;;;;;;5042779;28;19920;-80
2023/01/31 06:13:38;;;;;;;;;;;2.20;97.20;;;;;;5012469;28;19917;-80
2023/01/31 06:16:04;;;;;;;;;;;2.10;96.90;;;;;;5030539;28;19909;-78
2023/01/31 06:18:29;;;;;;;;;;;2.10;97.10;;;;;;5031337;28;19914;-79
2023/01/31 06:20:55;;;;;;;;;;;2.10;97.30;;;;;;5030823;28;19977;-78
2023/01/31 06:23:21;;;;;;;;;;;2.10;97.40;;;;;;5030867;28;19917;-78
2023/01/31 06:25:50;;;;;;;;;;;2.10;97.10;;;;;;5013010;28;19924;-79
2023/01/31 06:28:16;;;;;;;;;;;2.10;97.20;;;;;;5029456;28;19987;-77
2023/01/31 06:30:41;;;;;;;;;;;2.10;97.30;;;;;;5031778;28;19913;-80
2023/01/31 06:33:07;;;;;;;;;;;2.10;97.30;;;;;;5031295;28;19913;-81
2023/01/31 06:35:33;;;;;;;;;;;2.10;97.10;;;;;;5030568;28;19977;-79
2023/01/31 06:37:58;;;;;;;;;;;2.20;97.10;;;;;;5041695;28;19920;-79
2023/01/31 06:40:24;;;;;;;;;;;2.10;97.20;;;;;;5050425;28;20281;-78
2023/01/31 06:42:49;;;;;;;;;;;2.10;97.00;;;;;;5050306;28;19919;-79
2023/01/31 06:45:15;;;;;;;;;;;2.20;97.00;;;;;;5049097;28;19920;-80
2023/01/31 06:47:43;;;;;;;;;;;2.20;96.80;;;;;;5032973;28;19913;-78
2023/01/31 06:50:09;;;;;;;;;;;2.20;96.90;;;;;;5028765;28;19902;-78
2023/01/31 06:52:34;;;;;;;;;;;2.20;96.80;;;;;;5031873;28;19913;-78
2023/01/31 06:55:00;;;;;;;;;;;2.20;96.80;;;;;;5035047;28;19940;-78
2023/01/31 06:57:25;;;;;;;;;;;2.20;96.80;;;;;;5036995;28;19913;-78
2023/01/31 06:59:51;;;;;;;;;;;2.20;96.80;;;;;;5036968;28;19908;-79
2023/01/31 07:02:16;;;;;;;;;;;2.20;96.70;;;;;;5028890;28;20016;-78
2023/01/31 07:04:42;;;;;;;;;;;2.20;96.50;;;;;;5029247;28;19949;-79
2023/01/31 07:07:07;;;;;;;;;;;2.20;96.50;;;;;;5033353;28;20017;-78
2023/01/31 07:09:33;;;;;;;;;;;2.20;96.60;;;;;;5034087;28;19924;-79
2023/01/31 07:11:58;;;;;;;;;;;2.20;96.50;;;;;;5028721;28;19914;-79
2023/01/31 07:14:24;;;;;;;;;;;2.20;96.50;;;;;;5027791;28;19922;-80
2023/01/31 07:16:49;;;;;;;;;;;2.20;96.30;;;;;;5028821;28;19961;-80
2023/01/31 07:19:15;;;;;;;;;;;2.20;96.30;;;;;;5027155;28;19985;-80
2023/01/31 07:21:41;;;;;;;;;;;2.30;96.40;;;;;;5033936;28;19913;-81
2023/01/31 07:24:06;;;;;;;;;;;2.30;96.30;;;;;;5048870;28;19909;-80
2023/01/31 07:26:33;;;;;;;;;;;2.30;95.90;;;;;;5048204;28;19921;-79
2023/01/31 07:28:59;;;;;;;;;;;2.40;95.90;;;;;;5048219;28;19909;-80
2023/01/31 07:31:24;;;;;;;;;;;2.40;95.90;;;;;;5048005;28;20364;-80
2023/01/31 07:33:50;;;;;;;;;;;2.50;95.50;;;;;;5049112;28;19920;-80
2023/01/31 07:36:18;;;;;;;;;;;2.50;95.20;;;;;;5043394;28;19913;-79
2023/01/31 07:38:44;;;;;;;;;;;2.50;95.30;;;;;;5030091;28;19948;-80
2023/01/31 07:41:09;;;;;;;;;;;2.60;94.90;;;;;;5027241;28;19920;-78
2023/01/31 07:43:35;;;;;;;;;;;2.70;95.20;;;;;;5029076;28;19909;-80
2023/01/31 07:46:01;;;;;;;;;;;3.00;94.70;;;;;;5027585;28;19922;-80
2023/01/31 07:48:26;;;;;;;;;;;3.00;94.00;;;;;;5030419;28;20007;-79
2023/01/31 07:50:52;;;;;;;;;;;2.90;94.10;;;;;;5029592;28;19910;-80
2023/01/31 07:53:18;;;;;;;;;;;2.90;94.30;;;;;;5029008;28;19924;-79
2023/01/31 07:55:47;;;;;;;;;;;2.80;94.30;;;;;;5029129;28;19910;-79
2023/01/31 07:58:15;;;;;;;;;;;2.80;94.60;;;;;;5028526;28;19917;-79
2023/01/31 08:03:32;;;;;;;;;;;3.00;94.30;;;;;;5028720;28;19920;-78
2023/01/31 08:06:02;;;;;;;;;;;3.10;94.10;;;;;;5029184;28;20025;-78
2023/01/31 08:08:28;;;;;;;;;;;3.10;93.90;;;;;;5011027;28;19921;-79
2023/01/31 08:10:53;;;;;;;;;;;3.10;93.60;;;;;;5027497;28;19910;-79
2023/01/31 08:13:19;;;;;;;;;;;3.00;93.70;;;;;;5029851;28;19924;-79
2023/01/31 08:15:44;;;;;;;;;;;2.90;93.70;;;;;;5032410;28;19979;-78
2023/01/31 08:18:10;;;;;;;;;;;2.90;93.70;;;;;;5047568;28;19913;-78
2023/01/31 08:20:36;;;;;;;;;;;2.90;93.60;;;;;;5048927;28;19916;-78
2023/01/31 08:23:02;;;;;;;;;;;2.90;93.60;;;;;;5048819;28;19969;-78
2023/01/31 08:25:29;;;;;;;;;;;3.00;93.40;;;;;;5034883;28;19921;-78
2023/01/31 08:27:57;;;;;;;;;;;3.00;93.30;;;;;;5053166;28;20342;-80
2023/01/31 08:30:23;;;;;;;;;;;3.00;93.40;;;;;;5053626;28;19920;-77
2023/01/31 08:32:48;;;;;;;;;;;2.90;93.20;;;;;;5053227;28;19948;-78
2023/01/31 08:35:14;;;;;;;;;;;2.90;93.40;;;;;;5035709;28;19920;-77
2023/01/31 08:37:39;;;;;;;;;;;3.00;93.30;;;;;;5043773;28;19909;-77
2023/01/31 08:40:05;;;;;;;;;;;3.10;93.30;;;;;;5018938;28;19920;-77
2023/01/31 08:42:31;;;;;;;;;;;3.20;93.20;;;;;;5019168;28;19933;-77
2023/01/31 08:44:56;;;;;;;;;;;3.30;92.70;;;;;;5032310;28;19921;-79
2023/01/31 08:47:22;;;;;;;;;;;3.40;92.20;;;;;;5031565;28;19924;-80
2023/01/31 08:49:47;;;;;;;;;;;3.40;92.40;;;;;;5047034;28;19932;-81
2023/01/31 08:52:13;;;;;;;;;;;3.50;92.30;;;;;;5055118;28;19904;-78
2023/01/31 08:54:38;;;;;;;;;;;3.50;91.90;;;;;;5053653;28;19909;-79
2023/01/31 08:57:04;;;;;;;;;;;3.60;92.00;;;;;;5032690;28;20027;-80
2023/01/31 08:59:29;;;;;;;;;;;3.70;92.10;;;;;;5051555;28;19936;-78
2023/01/31 09:01:55;;;;;;;;;;;3.80;91.90;;;;;;5051120;28;20337;-78
2023/01/31 09:04:21;;;;;;;;;;;3.90;91.10;;;;;;5050990;28;19924;-80
2023/01/31 09:06:46;;;;;;;;;;;4.00;91.20;;;;;;5037053;28;19922;-78
2023/01/31 09:09:12;;;;;;;;;;;4.10;90.80;;;;;;5045973;28;19932;-79
2023/01/31 09:11:38;;;;;;;;;;;4.10;90.50;;;;;;5050656;28;19913;-80
2023/01/31 09:14:04;;;;;;;;;;;4.20;89.90;;;;;;5048836;28;19955;-78
2023/01/31 09:16:29;;;;;;;;;;;4.30;90.00;;;;;;5053103;28;19913;-78
2023/01/31 09:18:55;;;;;;;;;;;4.30;88.80;;;;;;5054024;28;19932;-78
2023/01/31 09:21:22;;;;;;;;;;;4.40;87.80;;;;;;5050599;28;19948;-79
2023/01/31 09:23:48;;;;;;;;;;;4.50;86.80;;;;;;5043981;28;19914;-78
2023/01/31 09:26:14;;;;;;;;;;;4.50;86.80;;;;;;5031186;28;19953;-78
2023/01/31 09:28:42;;;;;;;;;;;4.60;86.40;;;;;;5025278;28;19909;-81
2023/01/31 09:31:19;;;;;;;;;;;4.60;85.30;;;;;;4993749;28;19994;-78
2023/01/31 09:33:47;;;;;;;;;;;4.70;85.50;;;;;;5010770;28;19922;-79
2023/01/31 09:36:14;;;;;;;;;;;4.80;84.30;;;;;;5024610;28;19905;-80
2023/01/31 09:38:40;;;;;;;;;;;4.90;83.60;;;;;;5041192;28;20366;-79
2023/01/31 09:41:18;;;;;;;;;;;4.90;83.00;;;;;;5030612;28;19940;-79
2023/01/31 09:43:47;;;;;;;;;;;5.10;82.70;;;;;;5050119;28;19952;-80
2023/01/31 09:46:17;;;;;;;;;;;5.50;81.20;;;;;;5032375;28;20372;-80
2023/01/31 09:48:45;;;;;;;;;;;5.80;81.10;;;;;;5033186;28;19917;-77
2023/01/31 09:51:11;;;;;;;;;;;5.90;80.00;;;;;;5049695;28;20436;-79
2023/01/31 09:53:38;;;;;;;;;;;5.90;78.60;;;;;;5049271;28;19897;-78
2023/01/31 09:56:11;;;;;;;;;;;5.90;78.10;;;;;;5050849;28;20008;-79
2023/01/31 09:58:49;;;;;;;;;;;6.20;77.50;;;;;;5030923;28;20435;-79
2023/01/31 10:01:22;;;;;;;;;;;6.20;76.10;;;;;;5042278;28;19921;-80
2023/01/31 10:03:54;;;;;;;;;;;6.00;75.80;;;;;;5029349;28;19993;-78
2023/01/31 10:06:25;;;;;;;;;;;5.70;76.30;;;;;;5029620;28;20333;-79
2023/01/31 10:09:14;;;;;;;;;;;5.50;76.70;;;;;;5029743;28;19909;-78
2023/01/31 10:11:48;;;;;;;;;;;5.50;77.80;;;;;;5018001;28;19916;-78
2023/01/31 10:14:26;;;;;;;;;;;5.60;76.30;;;;;;5029381;28;19921;-78
2023/01/31 10:17:12;;;;;;;;;;;5.90;77.50;;;;;;5026557;28;19910;-79
2023/01/31 10:19:46;;;;;;;;;;;6.20;77.00;;;;;;5030049;28;19935;-78
2023/01/31 10:22:19;;;;;;;;;;;6.50;74.90;;;;;;5032823;28;19912;-78
2023/01/31 10:24:51;;;;;;;;;;;6.50;74.10;;;;;;5033116;28;19917;-77
2023/01/31 10:27:20;;;;;;;;;;;6.40;73.20;;;;;;5032471;28;19917;-78
2023/01/31 10:29:51;;;;;;;;;;;6.10;72.80;;;;;;5013500;28;19914;-79
2023/01/31 10:32:27;;;;;;;;;;;5.90;71.40;;;;;;5031107;28;19916;-79
2023/01/31 10:34:56;;;;;;;;;;;5.60;72.70;;;;;;5036370;28;19913;-77
2023/01/31 10:37:24;;;;;;;;;;;5.40;74.20;;;;;;5037745;28;19914;-79
2023/01/31 10:40:02;;;;;;;;;;;5.40;73.50;;;;;;5047001;28;20032;-79
2023/01/31 10:42:32;;;;;;;;;;;5.30;74.20;;;;;;5049461;28;19935;-79
2023/01/31 10:45:17;;;;;;;;;;;5.30;75.20;;;;;;5049258;28;19909;-78
2023/01/31 10:47:48;;;;;;;;;;;5.20;75.00;;;;;;5047413;28;19917;-79
2023/01/31 10:50:17;;;;;;;;;;;5.20;76.00;;;;;;5048470;28;19913;-78
2023/01/31 10:53:02;;;;;;;;;;;5.20;76.20;;;;;;5018792;28;19914;-79
2023/01/31 10:55:41;;;;;;;;;;;5.20;75.70;;;;;;5007742;28;19948;-79
2023/01/31 10:58:09;;;;;;;;;;;5.20;75.60;;;;;;5009933;28;19910;-78
2023/01/31 11:00:35;;;;;;;;;;;5.20;76.30;;;;;;5008736;28;19917;-80
2023/01/31 11:03:00;;;;;;;;;;;5.10;77.20;;;;;;5009269;28;20034;-79
2023/01/31 11:05:27;;;;;;;;;;;5.10;76.30;;;;;;4995319;28;19918;-80
2023/01/31 11:07:54;;;;;;;;;;;5.10;77.30;;;;;;5031452;28;19949;-80
2023/01/31 11:10:22;;;;;;;;;;;5.10;77.30;;;;;;5035881;28;19997;-81
2023/01/31 11:12:55;;;;;;;;;;;5.10;78.00;;;;;;5030200;28;19929;-81
2023/01/31 11:15:23;;;;;;;;;;;5.20;78.20;;;;;;5028190;28;19914;-79
2023/01/31 11:17:49;;;;;;;;;;;5.30;77.50;;;;;;5011097;28;20016;-80
2023/01/31 11:20:21;;;;;;;;;;;5.30;77.20;;;;;;5010874;28;19913;-79
2023/01/31 11:22:46;;;;;;;;;;;5.20;76.90;;;;;;5010969;28;19928;-79
2023/01/31 11:25:19;;;;;;;;;;;5.10;77.50;;;;;;5028222;28;19981;-79
2023/01/31 11:27:44;;;;;;;;;;;5.10;77.80;;;;;;5029727;28;20297;-78
2023/01/31 11:30:21;;;;;;;;;;;4.90;79.00;;;;;;5044112;28;19914;-79
2023/01/31 11:32:47;;;;;;;;;;;4.80;79.60;;;;;;5036136;28;21625;-79
2023/01/31 11:35:13;;;;;;;;;;;4.90;80.30;;;;;;5028760;28;19909;-80
2023/01/31 11:37:48;;;;;;;;;;;4.90;79.70;;;;;;5010828;28;19913;-79
2023/01/31 11:40:14;;;;;;;;;;;4.90;79.60;;;;;;5030768;28;19977;-78
2023/01/31 11:42:53;;;;;;;;;;;4.90;79.30;;;;;;5013019;28;19910;-79
2023/01/31 11:45:20;;;;;;;;;;;4.80;79.90;;;;;;5029389;28;19917;-79
2023/01/31 11:47:46;;;;;;;;;;;4.80;80.10;;;;;;5027814;28;19898;-80
2023/01/31 11:50:38;;;;;;;;;;;4.80;80.30;;;;;;5010487;28;19909;-78
2023/01/31 11:53:14;;;;;;;;;;;4.70;80.20;;;;;;5025520;28;19929;-80
2023/01/31 11:55:41;;;;;;;;;;;4.80;80.70;;;;;;5029932;28;19909;-80
2023/01/31 11:58:19;;;;;;;;;;;4.90;80.60;;;;;;5028655;28;19991;-80
2023/01/31 12:00:53;;;;;;;;;;;5.00;81.00;;;;;;5032762;28;19905;-79
2023/01/31 12:03:19;;;;;;;;;;;5.00;80.00;;;;;;5031174;28;20016;-80
2023/01/31 12:05:48;;;;;;;;;;;5.10;79.10;;;;;;5013155;28;19933;-79
2023/01/31 12:08:34;;;;;;;;;;;5.00;79.60;;;;;;5038132;28;19944;-79
2023/01/31 12:11:03;;;;;;;;;;;5.00;79.90;;;;;;5029430;28;19922;-79
2023/01/31 12:13:28;;;;;;;;;;;5.00;80.90;;;;;;5008151;28;19960;-79
2023/01/31 12:15:59;;;;;;;;;;;5.00;80.70;;;;;;5023000;28;19917;-78
2023/01/31 12:18:31;;;;;;;;;;;5.10;79.80;;;;;;5016099;28;19918;-78
2023/01/31 12:21:03;;;;;;;;;;;5.20;80.30;;;;;;5012033;28;19914;-77
2023/01/31 12:23:37;;;;;;;;;;;5.30;80.10;;;;;;5013167;28;19913;-80
2023/01/31 12:26:21;;;;;;;;;;;5.30;79.00;;;;;;5014864;28;19922;-78
2023/01/31 12:28:59;;;;;;;;;;;5.30;79.30;;;;;;5016957;28;19970;-77
2023/01/31 12:31:47;;;;;;;;;;;5.20;79.70;;;;;;5020497;28;19948;-77
2023/01/31 12:34:22;;;;;;;;;;;5.20;79.70;;;;;;5011814;28;19929;-79
2023/01/31 12:37:07;;;;;;;;;;;5.20;79.80;;;;;;5037941;28;19901;-79
2023/01/31 12:39:33;;;;;;;;;;;5.20;80.20;;;;;;5011644;28;19909;-79
2023/01/31 12:42:16;;;;;;;;;;;5.20;79.90;;;;;;5015814;28;19914;-79
2023/01/31 12:44:44;;;;;;;;;;;5.30;79.40;;;;;;5011574;28;19921;-78
2023/01/31 12:47:21;;;;;;;;;;;5.30;80.00;;;;;;5011712;28;19928;-79
2023/01/31 12:50:11;;;;;;;;;;;5.30;79.60;;;;;;5013265;28;19961;-78
2023/01/31 12:53:00;;;;;;;;;;;5.20;80.30;;;;;;5011106;28;19986;-79
2023/01/31 12:55:31;;;;;;;;;;;5.10;80.70;;;;;;5013374;28;19910;-80
2023/01/31 12:57:57;;;;;;;;;;;5.00;81.20;;;;;;5042269;28;19980;-79
2023/01/31 13:00:22;;;;;;;;;;;5.00;80.90;;;;;;5033644;28;19928;-79
2023/01/31 13:03:03;;;;;;;;;;;5.00;81.30;;;;;;5050895;28;19952;-80
2023/01/31 13:05:39;;;;;;;;;;;4.90;82.20;;;;;;5047046;28;19922;-79
2023/01/31 13:08:16;;;;;;;;;;;5.00;81.60;;;;;;5031957;28;19914;-78
2023/01/31 13:10:50;;;;;;;;;;;5.20;81.10;;;;;;5029066;28;19921;-79
2023/01/31 13:13:20;;;;;;;;;;;5.40;80.00;;;;;;5012693;28;20062;-78
2023/01/31 13:15:58;;;;;;;;;;;5.40;79.80;;;;;;5030840;28;20584;-78
2023/01/31 13:18:24;;;;;;;;;;;5.50;80.30;;;;;;5030832;28;19960;-78
2023/01/31 13:20:57;;;;;;;;;;;5.60;79.30;;;;;;5030713;28;19913;-80
2023/01/31 13:23:35;;;;;;;;;;;5.60;79.50;;;;;;5032108;28;19910;-79
2023/01/31 13:26:09;;;;;;;;;;;5.80;78.90;;;;;;5030377;28;20461;-78
2023/01/31 13:28:55;;;;;;;;;;;5.80;77.40;;;;;;5031028;28;19964;-80
2023/01/31 13:31:26;;;;;;;;;;;5.80;78.20;;;;;;5031764;28;19940;-79
2023/01/31 13:33:56;;;;;;;;;;;6.00;77.30;;;;;;5030303;28;19974;-79
2023/01/31 13:36:21;;;;;;;;;;;5.90;77.30;;;;;;5030357;28;19920;-80
2023/01/31 13:38:48;;;;;;;;;;;5.80;77.90;;;;;;5039869;28;19914;-78
2023/01/31 13:41:21;;;;;;;;;;;5.70;78.40;;;;;;5032175;28;19898;-79
2023/01/31 13:43:47;;;;;;;;;;;5.60;78.00;;;;;;5029717;28;19921;-78
2023/01/31 13:46:15;;;;;;;;;;;5.60;77.70;;;;;;5030520;28;19917;-78
2023/01/31 13:48:59;;;;;;;;;;;5.40;79.10;;;;;;5016807;28;19920;-78
2023/01/31 13:51:29;;;;;;;;;;;5.30;79.70;;;;;;5033916;28;19945;-78
2023/01/31 13:53:55;;;;;;;;;;;5.40;79.70;;;;;;5031826;28;20282;-78
2023/01/31 13:56:23;;;;;;;;;;;5.30;79.40;;;;;;5013374;28;19910;-80
2023/01/31 13:58:50;;;;;;;;;;;5.30;78.60;;;;;;5032184;28;19910;-78
2023/01/31 14:01:21;;;;;;;;;;;5.30;79.00;;;;;;5033896;28;19945;-77
2023/01/31 14:04:05;;;;;;;;;;;5.20;79.00;;;;;;5032803;28;19956;-79
2023/01/31 14:06:49;;;;;;;;;;;5.10;79.20;;;;;;5032502;28;19922;-81
2023/01/31 14:09:25;;;;;;;;;;;5.00;80.00;;;;;;5043587;28;19917;-79
2023/01/31 14:11:51;;;;;;;;;;;4.90;80.60;;;;;;5050110;28;19976;-79
2023/01/31 14:14:17;;;;;;;;;;;4.80;80.90;;;;;;5048337;28;19927;-80
2023/01/31 14:16:45;;;;;;;;;;;4.70;81.70;;;;;;5050151;28;19956;-78
2023/01/31 14:19:22;;;;;;;;;;;4.70;81.90;;;;;;5051026;28;19913;-78
2023/01/31 14:21:51;;;;;;;;;;;4.70;81.70;;;;;;5051200;28;19909;-78
2023/01/31 14:24:18;;;;;;;;;;;4.70;81.80;;;;;;5031604;28;19925;-77
2023/01/31 14:26:44;;;;;;;;;;;4.70;82.20;;;;;;5033151;28;19985;-77
2023/01/31 14:29:14;;;;;;;;;;;4.80;81.40;;;;;;5032594;28;19932;-78
2023/01/31 14:31:41;;;;;;;;;;;4.80;81.20;;;;;;5032877;28;19914;-77
2023/01/31 14:34:13;;;;;;;;;;;4.70;81.50;;;;;;5032501;28;19910;-77
2023/01/31 14:36:53;;;;;;;;;;;4.70;81.30;;;;;;5033046;28;20028;-78
2023/01/31 14:39:31;;;;;;;;;;;4.70;82.00;;;;;;5052364;28;20365;-78
2023/01/31 14:42:23;;;;;;;;;;;4.80;81.40;;;;;;5049875;28;19981;-78
2023/01/31 14:45:07;;;;;;;;;;;4.80;81.50;;;;;;5033927;28;19917;-77
2023/01/31 14:47:59;;;;;;;;;;;4.80;81.00;;;;;;5053004;28;19917;-78